createdAt,value
2023-02-19T00:02:13.663Z,12.80
2023-02-19T00:04:42.689Z,12.80
2023-02-19T00:07:12.891Z,12.80
2023-02-19T00:09:41.771Z,12.80
2023-02-19T00:12:10.650Z,12.80
2023-02-19T00:14:39.464Z,12.80
2023-02-19T00:17:08.288Z,12.90
2023-02-19T00:19:37.190Z,12.90
2023-02-19T00:22:05.995Z,12.90
2023-02-19T00:24:36.258Z,12.90
2023-02-19T00:27:05.258Z,13.00
2023-02-19T00:29:34.239Z,13.00
2023-02-19T00:32:03.232Z,13.10
2023-02-19T00:34:32.145Z,13.10
2023-02-19T00:37:01.100Z,13.10
2023-02-19T00:39:29.919Z,13.10
2023-02-19T00:42:01.008Z,13.10
2023-02-19T00:44:29.903Z,13.10
2023-02-19T00:46:58.698Z,13.10
2023-02-19T00:49:27.492Z,13.00
2023-02-19T00:51:56.480Z,13.00
2023-02-19T00:54:25.348Z,13.00
2023-02-19T00:56:54.306Z,12.90
2023-02-19T00:59:24.645Z,13.00
2023-02-19T01:01:53.578Z,13.00
2023-02-19T01:04:22.456Z,13.00
2023-02-19T01:06:51.365Z,12.90
2023-02-19T01:09:20.334Z,12.80
2023-02-19T01:11:49.130Z,12.70
2023-02-19T01:14:17.969Z,12.60
2023-02-19T01:16:48.297Z,12.50
2023-02-19T01:19:17.335Z,12.40
2023-02-19T01:21:46.122Z,12.20
2023-02-19T01:24:16.041Z,12.10
2023-02-19T01:26:45.454Z,12.00
2023-02-19T01:29:14.237Z,11.90
2023-02-19T01:31:43.507Z,11.70
2023-02-19T01:34:14.172Z,11.60
2023-02-19T01:36:43.019Z,11.50
2023-02-19T01:39:12.483Z,11.40
2023-02-19T01:41:43.285Z,11.30
2023-02-19T01:44:45.107Z,11.20
2023-02-19T01:47:15.102Z,11.10
2023-02-19T01:49:49.901Z,11.10
2023-02-19T01:52:23.805Z,11.00
2023-02-19T01:54:53.187Z,10.90
2023-02-19T01:57:25.575Z,10.70
2023-02-19T01:59:59.007Z,10.70
2023-02-19T02:02:28.694Z,10.60
2023-02-19T02:05:01.176Z,10.70
2023-02-19T02:07:47.230Z,10.80
2023-02-19T02:10:21.876Z,11.10
2023-02-19T02:12:52.742Z,11.30
2023-02-19T02:15:22.487Z,11.50
2023-02-19T02:17:57.415Z,11.60
2023-02-19T02:20:37.398Z,11.70
2023-02-19T02:23:16.252Z,11.80
2023-02-19T02:26:12.649Z,11.90
2023-02-19T02:29:18.005Z,12.00
2023-02-19T02:31:52.980Z,12.20
2023-02-19T02:34:28.058Z,12.30
2023-02-19T02:36:58.241Z,12.30
2023-02-19T02:39:29.547Z,12.30
2023-02-19T02:42:18.743Z,12.20
2023-02-19T02:45:20.915Z,12.20
2023-02-19T02:47:53.864Z,12.10
2023-02-19T02:50:44.508Z,11.90
2023-02-19T02:53:35.268Z,11.80
2023-02-19T02:56:05.445Z,11.60
2023-02-19T02:58:36.452Z,11.40
2023-02-19T03:01:28.272Z,11.20
2023-02-19T03:04:02.466Z,11.10
2023-02-19T03:06:35.039Z,11.00
2023-02-19T03:09:10.760Z,10.90
2023-02-19T03:12:00.041Z,10.80
2023-02-19T03:14:52.531Z,10.70
2023-02-19T03:17:43.529Z,10.60
2023-02-19T03:20:17.361Z,10.60
2023-02-19T03:22:47.418Z,10.50
2023-02-19T03:25:37.548Z,10.40
2023-02-19T03:28:11.292Z,10.30
2023-02-19T03:30:44.632Z,10.30
2023-02-19T03:33:17.324Z,10.20
2023-02-19T03:35:52.467Z,10.20
2023-02-19T03:38:26.772Z,10.10
2023-02-19T03:41:01.284Z,10.20
2023-02-19T03:43:55.534Z,10.10
2023-02-19T03:46:29.122Z,10.10
2023-02-19T03:49:03.901Z,10.10
2023-02-19T03:51:40.689Z,10.10
2023-02-19T03:54:16.692Z,10.20
2023-02-19T03:56:51.207Z,10.40
2023-02-19T03:59:25.267Z,10.50
2023-02-19T04:01:57.775Z,10.50
2023-02-19T04:04:30.793Z,10.60
2023-02-19T04:07:01.724Z,10.60
2023-02-19T04:09:38.646Z,10.70
2023-02-19T04:12:14.095Z,10.80
2023-02-19T04:14:48.229Z,10.80
2023-02-19T04:17:41.112Z,10.90
2023-02-19T04:20:12.097Z,11.00
2023-02-19T04:22:43.498Z,11.00
2023-02-19T04:25:12.602Z,11.10
2023-02-19T04:27:42.102Z,11.10
2023-02-19T04:30:14.378Z,11.20
2023-02-19T04:32:43.390Z,11.10
2023-02-19T04:35:12.361Z,11.10
2023-02-19T04:37:42.594Z,10.90
2023-02-19T04:40:12.554Z,10.80
2023-02-19T04:42:41.499Z,10.70
2023-02-19T04:45:10.671Z,10.60
2023-02-19T04:47:39.441Z,10.50
2023-02-19T04:50:09.199Z,10.50
2023-02-19T04:52:38.059Z,10.40
2023-02-19T04:55:09.884Z,10.40
2023-02-19T04:57:57.301Z,10.50
2023-02-19T05:00:26.136Z,10.50
2023-02-19T05:03:13.492Z,10.50
2023-02-19T05:05:42.326Z,10.40
2023-02-19T05:08:12.602Z,10.40
2023-02-19T05:10:46.755Z,10.40
2023-02-19T05:13:15.753Z,10.40
2023-02-19T05:15:44.619Z,10.30
2023-02-19T05:18:13.670Z,10.30
2023-02-19T05:20:43.152Z,10.30
2023-02-19T05:23:12.680Z,10.20
2023-02-19T05:25:43.405Z,10.10
2023-02-19T05:28:30.938Z,10.00
2023-02-19T05:30:59.913Z,9.90
2023-02-19T05:33:28.956Z,9.70
2023-02-19T05:36:04.140Z,9.60
2023-02-19T05:38:34.304Z,9.50
2023-02-19T05:43:56.371Z,9.40
2023-02-19T05:46:28.318Z,9.40
2023-02-19T05:48:58.466Z,9.40
2023-02-19T05:51:46.200Z,9.50
2023-02-19T05:54:20.776Z,9.70
2023-02-19T05:57:01.470Z,9.90
2023-02-19T05:59:32.654Z,10.10
2023-02-19T06:02:01.744Z,10.30
2023-02-19T06:04:33.591Z,10.50
2023-02-19T06:07:02.514Z,10.60
2023-02-19T06:09:32.601Z,10.70
2023-02-19T06:12:03.967Z,10.90
2023-02-19T06:14:34.290Z,11.00
2023-02-19T06:17:04.571Z,11.10
2023-02-19T06:19:33.480Z,11.20
2023-02-19T06:22:02.666Z,11.30
2023-02-19T06:24:31.742Z,11.50
2023-02-19T06:27:00.739Z,11.70
2023-02-19T06:29:34.822Z,11.90
2023-02-19T06:32:04.003Z,12.20
2023-02-19T06:34:33.985Z,12.40
2023-02-19T06:37:04.897Z,12.60
2023-02-19T06:39:34.402Z,12.80
2023-02-19T06:42:03.364Z,13.00
2023-02-19T06:44:33.659Z,13.20
2023-02-19T06:47:03.444Z,13.40
2023-02-19T06:49:32.324Z,13.50
2023-02-19T06:52:02.158Z,13.70
2023-02-19T06:54:31.702Z,13.80
2023-02-19T06:57:00.677Z,13.90
2023-02-19T06:59:29.716Z,13.90
2023-02-19T07:02:15.622Z,13.90
2023-02-19T07:04:46.361Z,14.00
2023-02-19T07:07:15.402Z,14.10
2023-02-19T07:09:45.138Z,14.20
2023-02-19T07:12:14.064Z,14.40
2023-02-19T07:14:42.866Z,14.60
2023-02-19T07:17:22.592Z,14.80
2023-02-19T07:19:54.076Z,15.20
2023-02-19T07:22:23.498Z,15.60
2023-02-19T07:24:52.302Z,15.90
2023-02-19T07:27:21.413Z,16.30
2023-02-19T07:29:51.704Z,16.60
2023-02-19T07:32:22.568Z,16.90
2023-02-19T07:34:51.842Z,17.10
2023-02-19T07:37:20.844Z,17.40
2023-02-19T07:39:50.217Z,17.60
2023-02-19T07:42:19.162Z,17.90
2023-02-19T07:44:48.098Z,18.10
2023-02-19T07:47:16.939Z,18.30
2023-02-19T07:49:47.199Z,18.40
2023-02-19T07:52:16.033Z,18.60
2023-02-19T07:54:44.908Z,18.70
2023-02-19T07:57:14.682Z,18.90
2023-02-19T07:59:43.440Z,19.10
2023-02-19T08:02:35.226Z,19.30
2023-02-19T08:05:06.192Z,19.50
2023-02-19T08:07:36.052Z,19.90
2023-02-19T08:10:25.911Z,20.30
2023-02-19T08:13:19.420Z,20.90
2023-02-19T08:15:48.839Z,21.50
2023-02-19T08:18:18.685Z,22.20
2023-02-19T08:20:49.176Z,22.70
2023-02-19T08:23:20.800Z,23.10
2023-02-19T08:26:00.639Z,23.40
2023-02-19T08:28:30.924Z,23.60
2023-02-19T08:31:03.240Z,23.80
2023-02-19T08:33:33.253Z,23.90
2023-02-19T08:36:09.060Z,23.90
2023-02-19T08:38:41.043Z,24.00
2023-02-19T08:41:12.165Z,24.00
2023-02-19T08:43:41.364Z,24.00
2023-02-19T08:46:12.077Z,24.00
2023-02-19T08:48:41.336Z,23.90
2023-02-19T08:51:23.539Z,23.70
2023-02-19T08:53:52.457Z,23.50
2023-02-19T08:56:21.294Z,23.30
2023-02-19T08:58:56.043Z,23.20
2023-02-19T09:01:25.095Z,23.20
2023-02-19T09:03:55.960Z,23.50
2023-02-19T09:06:27.302Z,23.70
2023-02-19T09:08:56.259Z,23.90
2023-02-19T09:11:25.052Z,24.30
2023-02-19T09:13:54.009Z,24.70
2023-02-19T09:16:22.911Z,25.10
2023-02-19T09:18:51.926Z,25.50
2023-02-19T09:21:20.747Z,25.90
2023-02-19T09:23:51.042Z,26.30
2023-02-19T09:26:25.624Z,26.70
2023-02-19T09:28:54.651Z,26.90
2023-02-19T09:31:23.559Z,27.10
2023-02-19T09:33:53.001Z,27.30
2023-02-19T09:36:21.879Z,27.40
2023-02-19T09:38:58.214Z,27.50
2023-02-19T09:41:31.384Z,27.40
2023-02-19T09:47:05.253Z,26.90
2023-02-19T09:49:36.510Z,26.60
2023-02-19T09:52:11.021Z,26.20
2023-02-19T09:54:42.474Z,26.00
2023-02-19T09:57:16.267Z,25.80
2023-02-19T09:59:49.501Z,25.70
2023-02-19T10:02:23.986Z,25.50
2023-02-19T10:04:54.501Z,25.50
2023-02-19T10:07:25.740Z,25.50
2023-02-19T10:10:01.338Z,25.60
2023-02-19T10:12:36.884Z,25.70
2023-02-19T10:15:14.802Z,25.60
2023-02-19T10:17:43.904Z,25.50
2023-02-19T10:20:16.427Z,25.50
2023-02-19T10:22:45.348Z,25.50
2023-02-19T10:25:18.001Z,25.50
2023-02-19T10:27:47.151Z,25.50
2023-02-19T10:30:23.306Z,25.60
2023-02-19T10:33:04.634Z,25.80
2023-02-19T10:35:38.150Z,25.70
2023-02-19T10:38:08.538Z,25.60
2023-02-19T10:40:46.241Z,25.60
2023-02-19T10:43:25.870Z,25.50
2023-02-19T10:45:54.910Z,25.50
2023-02-19T10:48:26.072Z,25.50
2023-02-19T10:50:58.475Z,25.50
2023-02-19T10:53:43.339Z,25.50
2023-02-19T10:56:16.203Z,25.40
2023-02-19T10:58:47.450Z,25.40
2023-02-19T11:01:22.342Z,25.40
2023-02-19T11:03:52.587Z,25.30
2023-02-19T11:06:27.169Z,25.30
2023-02-19T11:08:58.890Z,25.30
2023-02-19T11:11:33.464Z,25.20
2023-02-19T11:14:06.511Z,25.20
2023-02-19T11:16:47.821Z,25.10
2023-02-19T11:19:29.923Z,25.10
2023-02-19T11:22:00.477Z,25.10
2023-02-19T11:24:35.348Z,25.10
2023-02-19T11:27:09.720Z,25.00
2023-02-19T11:29:39.179Z,25.00
2023-02-19T11:32:29.556Z,24.90
2023-02-19T11:35:19.937Z,24.90
2023-02-19T11:38:00.163Z,24.80
2023-02-19T11:40:40.432Z,24.80
2023-02-19T11:43:26.203Z,24.60
2023-02-19T11:46:03.848Z,24.30
2023-02-19T11:48:54.005Z,24.00
2023-02-19T11:51:42.467Z,23.70
2023-02-19T11:54:55.290Z,23.30
2023-02-19T11:57:49.383Z,23.00
2023-02-19T12:00:29.236Z,22.70
2023-02-19T12:03:38.035Z,22.60
2023-02-19T12:06:22.617Z,22.60
2023-02-19T12:09:17.609Z,22.60
2023-02-19T12:12:20.320Z,22.60
2023-02-19T12:15:15.049Z,22.60
2023-02-19T12:18:19.329Z,22.80
2023-02-19T12:21:00.404Z,23.00
2023-02-19T12:23:47.027Z,23.30
2023-02-19T12:26:27.205Z,23.60
2023-02-19T12:29:26.541Z,23.90
2023-02-19T12:32:18.606Z,24.00
2023-02-19T12:35:23.289Z,24.10
2023-02-19T12:38:06.035Z,24.10
2023-02-19T12:40:51.236Z,24.10
2023-02-19T12:43:27.648Z,24.10
2023-02-19T12:46:21.702Z,24.10
2023-02-19T12:48:56.684Z,24.20
2023-02-19T12:51:30.331Z,24.20
2023-02-19T12:54:06.221Z,24.10
2023-02-19T12:56:41.032Z,23.90
2023-02-19T12:59:16.435Z,23.80
2023-02-19T13:01:51.082Z,23.70
2023-02-19T13:04:26.505Z,23.90
2023-02-19T13:07:00.386Z,24.00
2023-02-19T13:09:34.839Z,24.00
2023-02-19T13:12:08.974Z,24.00
2023-02-19T13:14:43.189Z,24.00
2023-02-19T13:17:23.836Z,23.90
2023-02-19T13:20:00.002Z,24.00
2023-02-19T13:22:53.164Z,24.00
2023-02-19T13:25:25.642Z,24.00
2023-02-19T13:28:05.773Z,24.00
2023-02-19T13:31:03.114Z,23.90
2023-02-19T13:33:45.550Z,23.60
2023-02-19T13:36:17.139Z,23.50
2023-02-19T13:38:48.900Z,23.30
2023-02-19T13:41:28.787Z,23.20
2023-02-19T13:44:03.997Z,23.10
2023-02-19T13:46:42.748Z,22.90
2023-02-19T13:49:44.426Z,22.80
2023-02-19T13:52:37.061Z,22.70
2023-02-19T13:55:44.366Z,22.60
2023-02-19T13:59:02.712Z,22.60
2023-02-19T14:02:14.797Z,22.40
2023-02-19T14:04:57.245Z,22.30
2023-02-19T14:08:01.548Z,22.20
2023-02-19T14:11:05.137Z,22.10
2023-02-19T14:14:10.028Z,22.00
2023-02-19T14:16:56.125Z,22.00
2023-02-19T14:20:00.458Z,21.90
2023-02-19T14:23:01.733Z,21.90
2023-02-19T14:25:38.417Z,21.90
2023-02-19T14:28:18.631Z,21.90
2023-02-19T14:30:51.422Z,21.80
2023-02-19T14:33:25.910Z,21.70
2023-02-19T14:36:06.015Z,21.60
2023-02-19T14:38:40.390Z,21.40
2023-02-19T14:41:13.788Z,21.30
2023-02-19T14:43:43.700Z,21.20
2023-02-19T14:46:22.069Z,21.00
2023-02-19T14:48:52.179Z,20.80
2023-02-19T14:51:28.857Z,20.70
2023-02-19T14:54:00.336Z,20.50
2023-02-19T14:56:33.789Z,20.40
2023-02-19T14:59:22.340Z,20.30
2023-02-19T15:01:57.069Z,20.10
2023-02-19T15:04:27.607Z,20.00
2023-02-19T15:06:57.801Z,19.80
2023-02-19T15:09:33.463Z,19.70
2023-02-19T15:12:04.308Z,19.60
2023-02-19T15:14:34.776Z,19.50
2023-02-19T15:17:06.912Z,19.40
2023-02-19T15:19:39.757Z,19.30
2023-02-19T15:22:13.409Z,19.20
2023-02-19T15:24:48.599Z,19.10
2023-02-19T15:27:20.938Z,19.00
2023-02-19T15:29:53.435Z,19.00
2023-02-19T15:32:26.399Z,18.90
2023-02-19T15:34:56.739Z,18.80
2023-02-19T15:37:30.476Z,18.70
2023-02-19T15:40:08.046Z,18.60
2023-02-19T15:42:38.824Z,18.50
2023-02-19T15:45:17.681Z,18.50
2023-02-19T15:47:50.905Z,18.50
2023-02-19T15:50:24.658Z,18.40
2023-02-19T15:52:59.812Z,18.30
2023-02-19T15:55:36.536Z,18.20
2023-02-19T15:58:14.834Z,18.20
2023-02-19T16:00:48.026Z,18.00
2023-02-19T16:03:21.002Z,17.90
2023-02-19T16:06:00.837Z,17.80
2023-02-19T16:08:34.221Z,17.70
2023-02-19T16:11:07.034Z,17.60
2023-02-19T16:13:37.263Z,17.50
2023-02-19T16:16:17.599Z,17.40
2023-02-19T16:18:48.290Z,17.40
2023-02-19T16:21:19.021Z,17.20
2023-02-19T16:23:50.764Z,17.20
2023-02-19T16:26:21.140Z,17.10
2023-02-19T16:28:53.473Z,17.00
2023-02-19T16:31:24.650Z,17.00
2023-02-19T16:33:53.775Z,16.90
2023-02-19T16:36:38.230Z,16.70
2023-02-19T16:39:26.824Z,16.70
2023-02-19T16:42:21.315Z,16.60
2023-02-19T16:44:50.377Z,16.50
2023-02-19T16:47:28.907Z,16.50
2023-02-19T16:50:01.386Z,16.40
2023-02-19T16:52:30.826Z,16.40
2023-02-19T16:55:00.323Z,16.30
2023-02-19T16:57:30.909Z,16.30
2023-02-19T16:59:59.865Z,16.30
2023-02-19T17:02:28.737Z,16.30
2023-02-19T17:04:57.832Z,16.30
2023-02-19T17:07:27.670Z,16.30
2023-02-19T17:09:57.091Z,16.30
2023-02-19T17:12:25.954Z,16.30
2023-02-19T17:14:56.158Z,16.30
2023-02-19T17:17:25.002Z,16.30
2023-02-19T17:19:53.910Z,16.30
2023-02-19T17:22:22.710Z,16.30
2023-02-19T17:24:51.711Z,16.30
2023-02-19T17:27:20.587Z,16.30
2023-02-19T17:29:49.383Z,16.20
2023-02-19T17:32:19.740Z,16.20
2023-02-19T17:34:49.815Z,16.10
2023-02-19T17:37:18.718Z,16.00
2023-02-19T17:39:47.557Z,16.00
2023-02-19T17:42:16.380Z,15.90
2023-02-19T17:44:46.897Z,15.90
2023-02-19T17:47:15.768Z,15.80
2023-02-19T17:49:46.611Z,15.80
2023-02-19T17:52:17.840Z,15.70
2023-02-19T17:54:46.986Z,15.60
2023-02-19T17:57:16.323Z,15.60
2023-02-19T17:59:45.619Z,15.50
2023-02-19T18:02:15.334Z,15.50
2023-02-19T18:04:47.106Z,15.40
2023-02-19T18:07:17.033Z,15.40
2023-02-19T18:09:46.360Z,15.30
2023-02-19T18:12:15.163Z,15.30
2023-02-19T18:14:46.484Z,15.20
2023-02-19T18:17:16.235Z,15.20
2023-02-19T18:19:47.414Z,15.20
2023-02-19T18:22:18.751Z,15.10
2023-02-19T18:24:48.684Z,15.10
2023-02-19T18:27:18.755Z,15.00
2023-02-19T18:29:52.599Z,15.00
2023-02-19T18:32:22.287Z,14.90
2023-02-19T18:35:00.498Z,14.90
2023-02-19T18:37:35.329Z,14.80
2023-02-19T18:40:11.280Z,14.80
2023-02-19T18:42:42.942Z,14.70
2023-02-19T18:45:13.257Z,14.60
2023-02-19T18:48:01.404Z,14.60
2023-02-19T18:50:32.026Z,14.50
2023-02-19T18:53:01.458Z,14.40
2023-02-19T18:55:30.500Z,14.40
2023-02-19T18:57:59.998Z,14.30
2023-02-19T19:00:32.837Z,14.30
2023-02-19T19:03:07.006Z,14.20
2023-02-19T19:05:37.385Z,14.10
2023-02-19T19:08:07.070Z,14.00
2023-02-19T19:10:35.957Z,13.90
2023-02-19T19:13:07.607Z,13.80
2023-02-19T19:15:36.882Z,13.70
2023-02-19T19:18:06.677Z,13.70
2023-02-19T19:20:37.189Z,13.60
2023-02-19T19:23:06.679Z,13.60
2023-02-19T19:25:35.611Z,13.50
2023-02-19T19:28:04.548Z,13.60
2023-02-19T19:30:33.932Z,13.50
2023-02-19T19:33:03.755Z,13.50
2023-02-19T19:35:32.606Z,13.40
2023-02-19T19:38:03.271Z,13.30
2023-02-19T19:40:32.207Z,13.10
2023-02-19T19:43:01.092Z,13.00
2023-02-19T19:45:30.195Z,12.90
2023-02-19T19:47:59.192Z,12.80
2023-02-19T19:50:28.761Z,12.70
2023-02-19T19:52:57.751Z,12.60
2023-02-19T19:55:28.209Z,12.60
2023-02-19T19:58:16.965Z,12.50
2023-02-19T20:00:46.394Z,12.50
2023-02-19T20:03:15.420Z,12.40
2023-02-19T20:05:45.992Z,12.40
2023-02-19T20:08:15.558Z,12.30
2023-02-19T20:11:08.905Z,12.30
2023-02-19T20:13:37.902Z,12.20
2023-02-19T20:16:26.584Z,12.10
2023-02-19T20:18:55.613Z,12.00
2023-02-19T20:21:26.427Z,11.90
2023-02-19T20:23:55.405Z,11.80
2023-02-19T20:26:27.970Z,11.70
2023-02-19T20:28:57.354Z,11.70
2023-02-19T20:31:26.676Z,11.60
2023-02-19T20:33:55.705Z,11.50
2023-02-19T20:36:28.612Z,11.50
2023-02-19T20:39:00.247Z,11.40
2023-02-19T20:41:30.824Z,11.30
2023-02-19T20:43:59.853Z,11.30
2023-02-19T20:46:30.015Z,11.30
2023-02-19T20:48:59.116Z,11.20
2023-02-19T20:51:27.984Z,11.10
2023-02-19T20:53:56.748Z,11.00
2023-02-19T20:56:25.568Z,11.00
2023-02-19T20:58:55.784Z,10.90
2023-02-19T21:01:28.239Z,10.90
2023-02-19T21:03:57.182Z,10.80
2023-02-19T21:06:26.020Z,10.80
2023-02-19T21:08:55.469Z,10.70
2023-02-19T21:11:24.876Z,10.70
2023-02-19T21:13:56.874Z,10.60
2023-02-19T21:16:26.117Z,10.60
2023-02-19T21:18:58.339Z,10.60
2023-02-19T21:21:27.629Z,10.50
2023-02-19T21:24:00.016Z,10.50
2023-02-19T21:26:35.941Z,10.40
2023-02-19T21:29:14.156Z,10.40
2023-02-19T21:31:45.152Z,10.40
2023-02-19T21:34:16.532Z,10.40
2023-02-19T21:36:46.854Z,10.30
2023-02-19T21:39:17.386Z,10.30
2023-02-19T21:41:46.567Z,10.30
2023-02-19T21:44:17.398Z,10.30
2023-02-19T21:46:48.992Z,10.30
2023-02-19T21:49:18.438Z,10.30
2023-02-19T21:51:49.514Z,10.30
2023-02-19T21:54:21.227Z,10.20
2023-02-19T21:56:50.556Z,10.20
2023-02-19T21:59:21.656Z,10.10
2023-02-19T22:01:51.174Z,10.10
2023-02-19T22:04:22.263Z,10.00
2023-02-19T22:06:52.636Z,10.00
2023-02-19T22:09:25.061Z,9.90
2023-02-19T22:11:53.939Z,9.90
2023-02-19T22:14:24.240Z,9.80
2023-02-19T22:19:39.985Z,9.60
2023-02-19T22:22:10.798Z,9.60
2023-02-19T22:24:40.388Z,9.50
2023-02-19T22:27:12.879Z,9.40
2023-02-19T22:30:13.839Z,9.30
2023-02-19T22:32:47.503Z,9.30
2023-02-19T22:35:22.523Z,9.20
2023-02-19T22:37:59.267Z,9.20
2023-02-19T22:40:35.575Z,9.20
2023-02-19T22:43:06.199Z,9.20
2023-02-19T22:45:36.404Z,9.20
2023-02-19T22:48:30.086Z,9.20
2023-02-19T22:51:05.579Z,9.20
2023-02-19T22:53:40.813Z,9.20
2023-02-19T22:56:24.863Z,9.20
2023-02-19T22:58:54.833Z,9.10
2023-02-19T23:01:50.185Z,9.30
2023-02-19T23:16:15.508Z,8.90
2023-02-19T23:21:50.099Z,8.80
2023-02-19T23:24:19.631Z,8.80
2023-02-19T23:26:56.567Z,8.70
2023-02-19T23:29:39.535Z,8.70
2023-02-19T23:32:08.545Z,8.60
2023-02-19T23:34:47.790Z,8.60
2023-02-19T23:37:20.396Z,8.60
2023-02-19T23:39:52.321Z,8.50
2023-02-19T23:42:21.488Z,8.50
2023-02-19T23:44:51.632Z,8.50
2023-02-19T23:47:22.744Z,8.50
2023-02-19T23:49:53.769Z,8.40
2023-02-19T23:52:29.158Z,8.40
2023-02-19T23:55:01.150Z,8.40
2023-02-19T23:57:32.030Z,8.40
